sensor_id;sensor_type;location;lat;lon;timestamp;temperature;humidity
34574;DHT22;20809;49.594;8.734;2022-11-15T00:00:46;11.30;99.90
34574;DHT22;20809;49.594;8.734;2022-11-15T00:03:51;11.30;99.90
34574;DHT22;20809;49.594;8.734;2022-11-15T00:06:52;11.30;99.90
34574;DHT22;20809;49.594;8.734;2022-11-15T00:09:52;11.30;99.90
34574;DHT22;20809;49.594;8.734;2022-11-15T00:12:53;11.30;99.90
34574;DHT22;20809;49.594;8.734;2022-11-15T00:15:57;11.30;99.90
34574;DHT22;20809;49.594;8.734;2022-11-15T00:18:58;11.40;99.90
34574;DHT22;20809;49.594;8.734;2022-11-15T00:21:59;11.50;99.90
34574;DHT22;20809;49.594;8.734;2022-11-15T00:24:59;11.50;99.90
34574;DHT22;20809;49.594;8.734;2022-11-15T00:28:00;11.50;99.90
34574;DHT22;20809;49.594;8.734;2022-11-15T00:31:06;11.50;99.90
34574;DHT22;20809;49.594;8.734;2022-11-15T00:34:07;11.30;99.90
34574;DHT22;20809;49.594;8.734;2022-11-15T00:37:07;11.30;99.90
34574;DHT22;20809;49.594;8.734;2022-11-15T00:40:09;11.20;99.90
34574;DHT22;20809;49.594;8.734;2022-11-15T00:43:13;11.00;99.90
34574;DHT22;20809;49.594;8.734;2022-11-15T00:46:13;10.70;99.90
34574;DHT22;20809;49.594;8.734;2022-11-15T00:49:14;10.60;99.90
34574;DHT22;20809;49.594;8.734;2022-11-15T00:52:15;10.50;99.90
34574;DHT22;20809;49.594;8.734;2022-11-15T00:55:17;10.50;99.90
34574;DHT22;20809;49.594;8.734;2022-11-15T00:58:18;10.60;99.90
34574;DHT22;20809;49.594;8.734;2022-11-15T01:01:19;10.60;99.90
34574;DHT22;20809;49.594;8.734;2022-11-15T01:04:20;10.70;99.90
34574;DHT22;20809;49.594;8.734;2022-11-15T01:07:21;10.60;99.90
34574;DHT22;20809;49.594;8.734;2022-11-15T01:10:23;10.60;99.90
34574;DHT22;20809;49.594;8.734;2022-11-15T01:13:24;10.60;99.90
34574;DHT22;20809;49.594;8.734;2022-11-15T01:16:24;10.60;99.90
34574;DHT22;20809;49.594;8.734;2022-11-15T01:19:25;10.50;99.90
34574;DHT22;20809;49.594;8.734;2022-11-15T01:22:26;10.40;99.90
34574;DHT22;20809;49.594;8.734;2022-11-15T01:25:26;10.30;99.90
34574;DHT22;20809;49.594;8.734;2022-11-15T01:28:32;10.40;99.90
34574;DHT22;20809;49.594;8.734;2022-11-15T01:31:33;10.50;99.90
34574;DHT22;20809;49.594;8.734;2022-11-15T01:34:34;10.60;99.90
34574;DHT22;20809;49.594;8.734;2022-11-15T01:37:34;10.50;99.90
34574;DHT22;20809;49.594;8.734;2022-11-15T01:40:35;10.40;99.90
34574;DHT22;20809;49.594;8.734;2022-11-15T01:43:36;10.40;99.90
34574;DHT22;20809;49.594;8.734;2022-11-15T01:46:37;10.40;99.90
34574;DHT22;20809;49.594;8.734;2022-11-15T01:49:43;10.50;99.90
34574;DHT22;20809;49.594;8.734;2022-11-15T01:52:47;10.50;99.90
34574;DHT22;20809;49.594;8.734;2022-11-15T01:59:08;10.60;99.90
34574;DHT22;20809;49.594;8.734;2022-11-15T02:02:10;10.60;99.90
34574;DHT22;20809;49.594;8.734;2022-11-15T02:05:11;10.60;99.90
34574;DHT22;20809;49.594;8.734;2022-11-15T02:08:12;10.60;99.90
34574;DHT22;20809;49.594;8.734;2022-11-15T02:11:20;10.60;99.90
34574;DHT22;20809;49.594;8.734;2022-11-15T02:14:21;10.60;99.90
34574;DHT22;20809;49.594;8.734;2022-11-15T02:24:42;10.60;99.90
34574;DHT22;20809;49.594;8.734;2022-11-15T02:28:00;10.50;99.90
34574;DHT22;20809;49.594;8.734;2022-11-15T02:37:59;10.10;99.90
34574;DHT22;20809;49.594;8.734;2022-11-15T02:41:09;10.00;99.90
34574;DHT22;20809;49.594;8.734;2022-11-15T02:44:23;9.80;99.90
34574;DHT22;20809;49.594;8.734;2022-11-15T02:47:26;9.70;99.90
34574;DHT22;20809;49.594;8.734;2022-11-15T02:50:29;9.60;99.90
34574;DHT22;20809;49.594;8.734;2022-11-15T02:53:32;9.50;99.90
34574;DHT22;20809;49.594;8.734;2022-11-15T02:56:32;9.50;99.90
34574;DHT22;20809;49.594;8.734;2022-11-15T03:00:09;9.50;99.90
34574;DHT22;20809;49.594;8.734;2022-11-15T03:03:33;9.40;99.90
34574;DHT22;20809;49.594;8.734;2022-11-15T03:13:26;9.40;99.90
34574;DHT22;20809;49.594;8.734;2022-11-15T03:16:37;9.30;99.90
34574;DHT22;20809;49.594;8.734;2022-11-15T03:19:47;9.30;99.90
34574;DHT22;20809;49.594;8.734;2022-11-15T03:22:49;9.30;99.90
34574;DHT22;20809;49.594;8.734;2022-11-15T03:25:51;9.30;99.90
34574;DHT22;20809;49.594;8.734;2022-11-15T03:28:55;9.30;99.90
34574;DHT22;20809;49.594;8.734;2022-11-15T03:32:12;9.30;99.90
34574;DHT22;20809;49.594;8.734;2022-11-15T03:35:21;9.30;99.90
34574;DHT22;20809;49.594;8.734;2022-11-15T03:38:26;9.30;99.90
34574;DHT22;20809;49.594;8.734;2022-11-15T03:51:12;9.50;99.90
34574;DHT22;20809;49.594;8.734;2022-11-15T03:54:14;9.50;99.90
34574;DHT22;20809;49.594;8.734;2022-11-15T03:57:14;9.60;99.90
34574;DHT22;20809;49.594;8.734;2022-11-15T04:00:15;9.50;99.90
34574;DHT22;20809;49.594;8.734;2022-11-15T04:03:16;9.60;99.90
34574;DHT22;20809;49.594;8.734;2022-11-15T04:06:17;9.50;99.90
34574;DHT22;20809;49.594;8.734;2022-11-15T04:09:17;9.40;99.90
34574;DHT22;20809;49.594;8.734;2022-11-15T04:12:18;9.20;99.90
34574;DHT22;20809;49.594;8.734;2022-11-15T04:15:30;9.10;99.90
34574;DHT22;20809;49.594;8.734;2022-11-15T04:18:31;9.00;99.90
34574;DHT22;20809;49.594;8.734;2022-11-15T04:21:32;8.90;99.90
34574;DHT22;20809;49.594;8.734;2022-11-15T04:24:51;8.80;99.90
34574;DHT22;20809;49.594;8.734;2022-11-15T04:27:52;9.00;99.90
34574;DHT22;20809;49.594;8.734;2022-11-15T04:30:53;9.10;99.90
34574;DHT22;20809;49.594;8.734;2022-11-15T04:33:53;9.20;99.90
34574;DHT22;20809;49.594;8.734;2022-11-15T04:36:54;9.30;99.90
34574;DHT22;20809;49.594;8.734;2022-11-15T04:40:13;9.40;99.90
34574;DHT22;20809;49.594;8.734;2022-11-15T04:43:14;9.50;99.90
34574;DHT22;20809;49.594;8.734;2022-11-15T04:46:15;9.40;99.90
34574;DHT22;20809;49.594;8.734;2022-11-15T04:49:15;9.40;99.90
34574;DHT22;20809;49.594;8.734;2022-11-15T04:52:16;9.30;99.90
34574;DHT22;20809;49.594;8.734;2022-11-15T04:55:16;9.20;99.90
34574;DHT22;20809;49.594;8.734;2022-11-15T04:58:17;9.10;99.90
34574;DHT22;20809;49.594;8.734;2022-11-15T05:01:18;9.10;99.90
34574;DHT22;20809;49.594;8.734;2022-11-15T05:04:18;9.10;99.90
34574;DHT22;20809;49.594;8.734;2022-11-15T05:07:19;9.00;99.90
34574;DHT22;20809;49.594;8.734;2022-11-15T05:10:20;9.10;99.90
34574;DHT22;20809;49.594;8.734;2022-11-15T05:13:20;9.10;99.90
34574;DHT22;20809;49.594;8.734;2022-11-15T05:16:21;9.10;99.90
34574;DHT22;20809;49.594;8.734;2022-11-15T05:19:22;9.20;99.90
34574;DHT22;20809;49.594;8.734;2022-11-15T05:22:23;9.30;99.90
34574;DHT22;20809;49.594;8.734;2022-11-15T05:25:23;9.30;99.90
34574;DHT22;20809;49.594;8.734;2022-11-15T05:28:24;9.10;99.90
34574;DHT22;20809;49.594;8.734;2022-11-15T05:31:26;9.10;99.90
34574;DHT22;20809;49.594;8.734;2022-11-15T05:34:26;9.20;99.90
34574;DHT22;20809;49.594;8.734;2022-11-15T05:37:28;9.30;99.90
34574;DHT22;20809;49.594;8.734;2022-11-15T05:40:30;9.40;99.90
34574;DHT22;20809;49.594;8.734;2022-11-15T05:43:33;9.40;99.90
34574;DHT22;20809;49.594;8.734;2022-11-15T05:46:37;9.30;99.90
34574;DHT22;20809;49.594;8.734;2022-11-15T05:49:39;9.20;99.90
34574;DHT22;20809;49.594;8.734;2022-11-15T05:52:41;9.10;99.90
34574;DHT22;20809;49.594;8.734;2022-11-15T05:55:42;9.00;99.90
34574;DHT22;20809;49.594;8.734;2022-11-15T05:58:43;8.90;99.90
34574;DHT22;20809;49.594;8.734;2022-11-15T06:01:43;8.80;99.90
34574;DHT22;20809;49.594;8.734;2022-11-15T06:04:44;8.80;99.90
34574;DHT22;20809;49.594;8.734;2022-11-15T06:07:45;8.80;99.90
34574;DHT22;20809;49.594;8.734;2022-11-15T06:10:45;9.00;99.90
34574;DHT22;20809;49.594;8.734;2022-11-15T06:13:46;9.10;99.90
34574;DHT22;20809;49.594;8.734;2022-11-15T06:16:47;9.00;99.90
34574;DHT22;20809;49.594;8.734;2022-11-15T06:19:47;9.00;99.90
34574;DHT22;20809;49.594;8.734;2022-11-15T06:22:48;9.00;99.90
34574;DHT22;20809;49.594;8.734;2022-11-15T06:25:48;9.10;99.90
34574;DHT22;20809;49.594;8.734;2022-11-15T06:28:49;9.10;99.90
34574;DHT22;20809;49.594;8.734;2022-11-15T06:31:50;9.10;99.90
34574;DHT22;20809;49.594;8.734;2022-11-15T06:34:50;9.00;99.90
34574;DHT22;20809;49.594;8.734;2022-11-15T06:37:51;9.10;99.90
34574;DHT22;20809;49.594;8.734;2022-11-15T06:40:52;9.00;99.90
34574;DHT22;20809;49.594;8.734;2022-11-15T06:43:53;8.90;99.90
34574;DHT22;20809;49.594;8.734;2022-11-15T06:46:53;8.90;99.90
34574;DHT22;20809;49.594;8.734;2022-11-15T06:49:54;8.90;99.90
34574;DHT22;20809;49.594;8.734;2022-11-15T06:52:54;8.90;99.90
34574;DHT22;20809;49.594;8.734;2022-11-15T06:56:05;8.90;99.90
34574;DHT22;20809;49.594;8.734;2022-11-15T06:59:05;8.90;99.90
34574;DHT22;20809;49.594;8.734;2022-11-15T07:02:12;8.90;99.90
34574;DHT22;20809;49.594;8.734;2022-11-15T07:05:14;8.90;99.90
34574;DHT22;20809;49.594;8.734;2022-11-15T07:08:15;8.90;99.90
34574;DHT22;20809;49.594;8.734;2022-11-15T07:11:15;8.80;99.90
34574;DHT22;20809;49.594;8.734;2022-11-15T07:14:16;8.70;99.90
34574;DHT22;20809;49.594;8.734;2022-11-15T07:17:17;8.80;99.90
34574;DHT22;20809;49.594;8.734;2022-11-15T07:20:18;8.90;99.90
34574;DHT22;20809;49.594;8.734;2022-11-15T07:23:18;9.10;99.90
34574;DHT22;20809;49.594;8.734;2022-11-15T07:26:19;9.20;99.90
34574;DHT22;20809;49.594;8.734;2022-11-15T07:29:20;9.30;99.90
34574;DHT22;20809;49.594;8.734;2022-11-15T07:32:21;9.50;99.90
34574;DHT22;20809;49.594;8.734;2022-11-15T07:35:22;9.70;99.90
34574;DHT22;20809;49.594;8.734;2022-11-15T07:38:23;9.90;99.90
34574;DHT22;20809;49.594;8.734;2022-11-15T07:41:23;10.00;99.90
34574;DHT22;20809;49.594;8.734;2022-11-15T07:44:25;10.20;99.90
34574;DHT22;20809;49.594;8.734;2022-11-15T07:47:27;10.30;99.90
34574;DHT22;20809;49.594;8.734;2022-11-15T07:50:28;10.40;99.90
34574;DHT22;20809;49.594;8.734;2022-11-15T07:53:30;10.50;99.90
34574;DHT22;20809;49.594;8.734;2022-11-15T07:59:35;10.60;99.90
34574;DHT22;20809;49.594;8.734;2022-11-15T08:02:36;10.70;99.90
34574;DHT22;20809;49.594;8.734;2022-11-15T08:05:37;10.80;99.90
34574;DHT22;20809;49.594;8.734;2022-11-15T08:08:38;10.80;99.90
34574;DHT22;20809;49.594;8.734;2022-11-15T08:11:39;10.80;99.90
34574;DHT22;20809;49.594;8.734;2022-11-15T08:14:39;11.00;99.90
34574;DHT22;20809;49.594;8.734;2022-11-15T08:17:40;11.10;99.90
34574;DHT22;20809;49.594;8.734;2022-11-15T08:20:42;10.90;99.90
34574;DHT22;20809;49.594;8.734;2022-11-15T08:23:43;10.80;99.90
34574;DHT22;20809;49.594;8.734;2022-11-15T08:26:44;10.90;99.90
34574;DHT22;20809;49.594;8.734;2022-11-15T08:29:45;11.10;99.90
34574;DHT22;20809;49.594;8.734;2022-11-15T08:32:47;11.20;99.90
34574;DHT22;20809;49.594;8.734;2022-11-15T08:35:48;11.40;99.90
34574;DHT22;20809;49.594;8.734;2022-11-15T08:38:48;11.70;99.90
34574;DHT22;20809;49.594;8.734;2022-11-15T08:41:49;11.70;99.90
34574;DHT22;20809;49.594;8.734;2022-11-15T08:44:50;11.50;99.90
34574;DHT22;20809;49.594;8.734;2022-11-15T08:47:50;11.60;99.90
34574;DHT22;20809;49.594;8.734;2022-11-15T08:50:55;11.60;99.90
34574;DHT22;20809;49.594;8.734;2022-11-15T08:53:56;11.50;99.90
34574;DHT22;20809;49.594;8.734;2022-11-15T08:56:57;11.50;99.90
34574;DHT22;20809;49.594;8.734;2022-11-15T08:59:58;11.40;99.90
34574;DHT22;20809;49.594;8.734;2022-11-15T09:02:59;11.40;99.90
34574;DHT22;20809;49.594;8.734;2022-11-15T09:06:00;11.30;99.90
34574;DHT22;20809;49.594;8.734;2022-11-15T09:09:01;11.40;99.90
34574;DHT22;20809;49.594;8.734;2022-11-15T09:12:02;11.50;99.90
34574;DHT22;20809;49.594;8.734;2022-11-15T09:15:05;11.70;99.90
34574;DHT22;20809;49.594;8.734;2022-11-15T09:18:05;11.90;99.90
34574;DHT22;20809;49.594;8.734;2022-11-15T09:21:06;12.00;99.90
34574;DHT22;20809;49.594;8.734;2022-11-15T09:24:07;12.10;99.90
34574;DHT22;20809;49.594;8.734;2022-11-15T09:27:08;12.10;99.90
34574;DHT22;20809;49.594;8.734;2022-11-15T09:30:10;12.10;99.90
34574;DHT22;20809;49.594;8.734;2022-11-15T09:33:11;12.30;99.90
34574;DHT22;20809;49.594;8.734;2022-11-15T09:36:13;12.50;99.90
34574;DHT22;20809;49.594;8.734;2022-11-15T09:39:13;12.70;99.90
34574;DHT22;20809;49.594;8.734;2022-11-15T09:49:21;13.40;99.90
34574;DHT22;20809;49.594;8.734;2022-11-15T09:52:23;13.60;99.90
34574;DHT22;20809;49.594;8.734;2022-11-15T09:55:27;13.90;99.90
34574;DHT22;20809;49.594;8.734;2022-11-15T10:05:12;14.50;99.90
34574;DHT22;20809;49.594;8.734;2022-11-15T10:11:30;14.50;99.90
34574;DHT22;20809;49.594;8.734;2022-11-15T10:14:31;14.50;99.90
34574;DHT22;20809;49.594;8.734;2022-11-15T10:21:17;14.40;99.90
34574;DHT22;20809;49.594;8.734;2022-11-15T10:24:25;14.20;99.90
34574;DHT22;20809;49.594;8.734;2022-11-15T10:27:26;14.20;99.90
34574;DHT22;20809;49.594;8.734;2022-11-15T10:30:33;14.10;99.90
34574;DHT22;20809;49.594;8.734;2022-11-15T10:33:36;14.20;99.90
34574;DHT22;20809;49.594;8.734;2022-11-15T10:36:37;14.40;99.90
34574;DHT22;20809;49.594;8.734;2022-11-15T10:39:38;14.40;99.90
34574;DHT22;20809;49.594;8.734;2022-11-15T10:42:39;14.60;99.90
34574;DHT22;20809;49.594;8.734;2022-11-15T10:45:39;14.60;99.90
34574;DHT22;20809;49.594;8.734;2022-11-15T10:48:40;14.50;99.90
34574;DHT22;20809;49.594;8.734;2022-11-15T10:52:17;14.60;99.90
34574;DHT22;20809;49.594;8.734;2022-11-15T11:01:28;14.50;99.90
34574;DHT22;20809;49.594;8.734;2022-11-15T11:04:49;14.60;99.90
34574;DHT22;20809;49.594;8.734;2022-11-15T11:08:39;14.60;99.90
34574;DHT22;20809;49.594;8.734;2022-11-15T11:11:20;14.60;99.90
34574;DHT22;20809;49.594;8.734;2022-11-15T11:14:24;14.70;99.90
34574;DHT22;20809;49.594;8.734;2022-11-15T11:20:58;14.80;99.90
34574;DHT22;20809;49.594;8.734;2022-11-15T11:31:40;14.70;99.90
34574;DHT22;20809;49.594;8.734;2022-11-15T11:37:59;14.90;99.90
34574;DHT22;20809;49.594;8.734;2022-11-15T11:44:34;15.00;99.90
34574;DHT22;20809;49.594;8.734;2022-11-15T11:47:54;15.10;99.90
34574;DHT22;20809;49.594;8.734;2022-11-15T11:51:05;15.20;99.90
34574;DHT22;20809;49.594;8.734;2022-11-15T11:54:22;15.20;99.90
34574;DHT22;20809;49.594;8.734;2022-11-15T12:00:43;15.20;99.90
34574;DHT22;20809;49.594;8.734;2022-11-15T12:07:33;15.20;99.90
34574;DHT22;20809;49.594;8.734;2022-11-15T12:10:35;15.30;99.90
34574;DHT22;20809;49.594;8.734;2022-11-15T12:13:38;15.50;99.90
34574;DHT22;20809;49.594;8.734;2022-11-15T12:16:41;15.80;99.90
34574;DHT22;20809;49.594;8.734;2022-11-15T12:19:42;16.10;99.90
34574;DHT22;20809;49.594;8.734;2022-11-15T12:23:01;16.50;99.90
34574;DHT22;20809;49.594;8.734;2022-11-15T12:26:08;16.70;99.90
34574;DHT22;20809;49.594;8.734;2022-11-15T12:29:16;16.60;99.90
34574;DHT22;20809;49.594;8.734;2022-11-15T12:32:26;16.40;99.90
34574;DHT22;20809;49.594;8.734;2022-11-15T12:35:37;16.10;99.90
34574;DHT22;20809;49.594;8.734;2022-11-15T12:45:28;15.40;99.90
34574;DHT22;20809;49.594;8.734;2022-11-15T12:57:43;15.40;99.90
34574;DHT22;20809;49.594;8.734;2022-11-15T13:00:44;15.40;99.90
34574;DHT22;20809;49.594;8.734;2022-11-15T13:10:36;15.30;99.90
34574;DHT22;20809;49.594;8.734;2022-11-15T13:13:44;15.30;99.90
34574;DHT22;20809;49.594;8.734;2022-11-15T13:16:46;15.30;99.90
34574;DHT22;20809;49.594;8.734;2022-11-15T13:23:23;15.20;99.90
34574;DHT22;20809;49.594;8.734;2022-11-15T13:26:24;15.10;99.90
34574;DHT22;20809;49.594;8.734;2022-11-15T13:29:25;15.00;99.90
34574;DHT22;20809;49.594;8.734;2022-11-15T13:32:26;15.00;99.90
34574;DHT22;20809;49.594;8.734;2022-11-15T13:35:28;15.10;99.90
34574;DHT22;20809;49.594;8.734;2022-11-15T13:38:35;15.10;99.90
34574;DHT22;20809;49.594;8.734;2022-11-15T13:41:45;15.20;99.90
34574;DHT22;20809;49.594;8.734;2022-11-15T13:45:02;15.40;99.90
34574;DHT22;20809;49.594;8.734;2022-11-15T13:48:03;15.40;99.90
34574;DHT22;20809;49.594;8.734;2022-11-15T13:51:21;15.40;99.90
34574;DHT22;20809;49.594;8.734;2022-11-15T13:54:35;15.30;99.90
34574;DHT22;20809;49.594;8.734;2022-11-15T13:57:48;15.20;99.90
34574;DHT22;20809;49.594;8.734;2022-11-15T14:01:00;15.20;99.90
34574;DHT22;20809;49.594;8.734;2022-11-15T14:04:03;15.30;99.90
34574;DHT22;20809;49.594;8.734;2022-11-15T14:07:04;15.30;99.90
34574;DHT22;20809;49.594;8.734;2022-11-15T14:10:34;15.30;99.90
34574;DHT22;20809;49.594;8.734;2022-11-15T14:13:36;15.30;99.90
34574;DHT22;20809;49.594;8.734;2022-11-15T14:19:41;15.30;99.90
34574;DHT22;20809;49.594;8.734;2022-11-15T14:22:52;15.30;99.90
34574;DHT22;20809;49.594;8.734;2022-11-15T14:25:54;15.30;99.90
34574;DHT22;20809;49.594;8.734;2022-11-15T14:28:55;15.30;99.90
34574;DHT22;20809;49.594;8.734;2022-11-15T14:32:30;15.20;99.90
34574;DHT22;20809;49.594;8.734;2022-11-15T14:35:38;15.20;99.90
34574;DHT22;20809;49.594;8.734;2022-11-15T14:38:39;15.10;99.90
34574;DHT22;20809;49.594;8.734;2022-11-15T14:41:40;15.00;99.90
34574;DHT22;20809;49.594;8.734;2022-11-15T14:44:41;14.90;99.90
34574;DHT22;20809;49.594;8.734;2022-11-15T14:47:42;14.70;99.90
34574;DHT22;20809;49.594;8.734;2022-11-15T14:50:44;14.60;99.90
34574;DHT22;20809;49.594;8.734;2022-11-15T14:53:45;14.50;99.90
34574;DHT22;20809;49.594;8.734;2022-11-15T14:56:46;14.30;99.90
34574;DHT22;20809;49.594;8.734;2022-11-15T14:59:47;14.20;99.90
34574;DHT22;20809;49.594;8.734;2022-11-15T15:02:48;14.10;99.90
34574;DHT22;20809;49.594;8.734;2022-11-15T15:05:50;14.00;99.90
34574;DHT22;20809;49.594;8.734;2022-11-15T15:08:51;14.00;99.90
34574;DHT22;20809;49.594;8.734;2022-11-15T15:11:52;13.80;99.90
34574;DHT22;20809;49.594;8.734;2022-11-15T15:14:54;13.70;99.90
34574;DHT22;20809;49.594;8.734;2022-11-15T15:17:55;13.60;99.90
34574;DHT22;20809;49.594;8.734;2022-11-15T15:20:57;13.50;99.90
34574;DHT22;20809;49.594;8.734;2022-11-15T15:24:00;13.40;99.90
34574;DHT22;20809;49.594;8.734;2022-11-15T15:27:00;13.50;99.90
34574;DHT22;20809;49.594;8.734;2022-11-15T15:30:01;13.50;99.90
34574;DHT22;20809;49.594;8.734;2022-11-15T15:33:02;13.50;99.90
34574;DHT22;20809;49.594;8.734;2022-11-15T15:36:03;13.50;99.90
34574;DHT22;20809;49.594;8.734;2022-11-15T15:39:04;13.40;99.90
34574;DHT22;20809;49.594;8.734;2022-11-15T15:42:04;13.30;99.90
34574;DHT22;20809;49.594;8.734;2022-11-15T15:45:06;13.20;99.90
34574;DHT22;20809;49.594;8.734;2022-11-15T15:48:13;13.20;99.90
34574;DHT22;20809;49.594;8.734;2022-11-15T15:51:13;13.20;99.90
34574;DHT22;20809;49.594;8.734;2022-11-15T15:54:14;13.10;99.90
34574;DHT22;20809;49.594;8.734;2022-11-15T15:57:15;13.00;99.90
34574;DHT22;20809;49.594;8.734;2022-11-15T16:00:16;13.00;99.90
34574;DHT22;20809;49.594;8.734;2022-11-15T16:03:17;12.90;99.90
34574;DHT22;20809;49.594;8.734;2022-11-15T16:06:39;12.90;99.90
34574;DHT22;20809;49.594;8.734;2022-11-15T16:09:40;13.00;99.90
34574;DHT22;20809;49.594;8.734;2022-11-15T16:13:00;13.00;99.90
34574;DHT22;20809;49.594;8.734;2022-11-15T16:16:00;13.00;99.90
34574;DHT22;20809;49.594;8.734;2022-11-15T16:19:01;12.90;99.90
34574;DHT22;20809;49.594;8.734;2022-11-15T16:22:02;12.80;99.90
34574;DHT22;20809;49.594;8.734;2022-11-15T16:25:03;12.70;99.90
34574;DHT22;20809;49.594;8.734;2022-11-15T16:28:04;12.60;99.90
34574;DHT22;20809;49.594;8.734;2022-11-15T16:31:09;12.60;99.90
34574;DHT22;20809;49.594;8.734;2022-11-15T16:34:10;12.80;99.90
34574;DHT22;20809;49.594;8.734;2022-11-15T16:37:22;12.80;99.90
34574;DHT22;20809;49.594;8.734;2022-11-15T16:40:29;12.80;99.90
34574;DHT22;20809;49.594;8.734;2022-11-15T16:43:30;12.90;99.90
34574;DHT22;20809;49.594;8.734;2022-11-15T16:46:31;12.90;99.90
34574;DHT22;20809;49.594;8.734;2022-11-15T16:49:32;12.90;99.90
34574;DHT22;20809;49.594;8.734;2022-11-15T16:52:32;12.90;99.90
34574;DHT22;20809;49.594;8.734;2022-11-15T16:55:33;12.90;99.90
34574;DHT22;20809;49.594;8.734;2022-11-15T16:58:36;12.90;99.90
34574;DHT22;20809;49.594;8.734;2022-11-15T17:01:37;12.90;99.90
34574;DHT22;20809;49.594;8.734;2022-11-15T17:04:46;12.90;99.90
34574;DHT22;20809;49.594;8.734;2022-11-15T17:07:48;13.00;99.90
34574;DHT22;20809;49.594;8.734;2022-11-15T17:10:49;13.00;99.90
34574;DHT22;20809;49.594;8.734;2022-11-15T17:13:50;13.00;99.90
34574;DHT22;20809;49.594;8.734;2022-11-15T17:16:52;13.00;99.90
34574;DHT22;20809;49.594;8.734;2022-11-15T17:19:53;13.10;99.90
34574;DHT22;20809;49.594;8.734;2022-11-15T17:22:55;13.10;99.90
34574;DHT22;20809;49.594;8.734;2022-11-15T17:26:02;13.20;99.90
34574;DHT22;20809;49.594;8.734;2022-11-15T17:29:05;13.20;99.90
34574;DHT22;20809;49.594;8.734;2022-11-15T17:32:08;13.10;99.90
34574;DHT22;20809;49.594;8.734;2022-11-15T17:35:11;13.10;99.90
34574;DHT22;20809;49.594;8.734;2022-11-15T17:38:12;13.10;99.90
34574;DHT22;20809;49.594;8.734;2022-11-15T17:41:15;13.10;99.90
34574;DHT22;20809;49.594;8.734;2022-11-15T17:44:16;13.20;99.90
34574;DHT22;20809;49.594;8.734;2022-11-15T17:47:16;13.20;99.90
34574;DHT22;20809;49.594;8.734;2022-11-15T17:50:17;13.20;99.90
34574;DHT22;20809;49.594;8.734;2022-11-15T17:53:18;13.10;99.90
34574;DHT22;20809;49.594;8.734;2022-11-15T17:56:20;13.20;99.90
34574;DHT22;20809;49.594;8.734;2022-11-15T17:59:21;13.20;99.90
34574;DHT22;20809;49.594;8.734;2022-11-15T18:02:22;13.20;99.90
34574;DHT22;20809;49.594;8.734;2022-11-15T18:05:22;13.10;99.90
34574;DHT22;20809;49.594;8.734;2022-11-15T18:08:23;13.10;99.90
34574;DHT22;20809;49.594;8.734;2022-11-15T18:11:29;13.10;99.90
34574;DHT22;20809;49.594;8.734;2022-11-15T18:14:31;13.20;99.90
34574;DHT22;20809;49.594;8.734;2022-11-15T18:17:31;13.20;99.90
34574;DHT22;20809;49.594;8.734;2022-11-15T18:20:32;13.10;99.90
34574;DHT22;20809;49.594;8.734;2022-11-15T18:23:33;13.00;99.90
34574;DHT22;20809;49.594;8.734;2022-11-15T18:26:34;13.00;99.90
34574;DHT22;20809;49.594;8.734;2022-11-15T18:29:34;13.00;99.90
34574;DHT22;20809;49.594;8.734;2022-11-15T18:32:37;13.10;99.90
34574;DHT22;20809;49.594;8.734;2022-11-15T18:35:37;13.10;99.90
34574;DHT22;20809;49.594;8.734;2022-11-15T18:38:38;13.10;99.90
34574;DHT22;20809;49.594;8.734;2022-11-15T18:41:39;13.00;99.90
34574;DHT22;20809;49.594;8.734;2022-11-15T18:44:40;13.00;99.90
34574;DHT22;20809;49.594;8.734;2022-11-15T18:47:40;13.10;99.90
34574;DHT22;20809;49.594;8.734;2022-11-15T18:50:41;13.00;99.90
34574;DHT22;20809;49.594;8.734;2022-11-15T18:53:42;12.90;99.90
34574;DHT22;20809;49.594;8.734;2022-11-15T18:56:43;12.90;99.90
34574;DHT22;20809;49.594;8.734;2022-11-15T18:59:45;12.90;99.90
34574;DHT22;20809;49.594;8.734;2022-11-15T19:02:45;12.70;99.90
34574;DHT22;20809;49.594;8.734;2022-11-15T19:05:46;12.60;99.90
34574;DHT22;20809;49.594;8.734;2022-11-15T19:08:48;12.50;99.90
34574;DHT22;20809;49.594;8.734;2022-11-15T19:11:49;12.50;99.90
34574;DHT22;20809;49.594;8.734;2022-11-15T19:14:50;12.60;99.90
34574;DHT22;20809;49.594;8.734;2022-11-15T19:17:51;12.60;99.90
34574;DHT22;20809;49.594;8.734;2022-11-15T19:20:52;12.60;99.90
34574;DHT22;20809;49.594;8.734;2022-11-15T19:23:54;12.50;99.90
34574;DHT22;20809;49.594;8.734;2022-11-15T19:26:55;12.60;99.90
34574;DHT22;20809;49.594;8.734;2022-11-15T19:29:55;12.70;99.90
34574;DHT22;20809;49.594;8.734;2022-11-15T19:32:56;12.80;99.90
34574;DHT22;20809;49.594;8.734;2022-11-15T19:36:01;12.80;99.90
34574;DHT22;20809;49.594;8.734;2022-11-15T19:39:04;12.60;99.90
34574;DHT22;20809;49.594;8.734;2022-11-15T19:42:07;12.50;99.90
34574;DHT22;20809;49.594;8.734;2022-11-15T19:45:08;12.50;99.90
34574;DHT22;20809;49.594;8.734;2022-11-15T19:48:09;12.50;99.90
34574;DHT22;20809;49.594;8.734;2022-11-15T19:51:12;12.50;99.90
34574;DHT22;20809;49.594;8.734;2022-11-15T19:54:13;12.60;99.90
34574;DHT22;20809;49.594;8.734;2022-11-15T19:57:16;12.60;99.90
34574;DHT22;20809;49.594;8.734;2022-11-15T20:00:17;12.50;99.90
34574;DHT22;20809;49.594;8.734;2022-11-15T20:03:18;12.50;99.90
34574;DHT22;20809;49.594;8.734;2022-11-15T20:06:21;12.60;99.90
34574;DHT22;20809;49.594;8.734;2022-11-15T20:09:22;12.60;99.90
34574;DHT22;20809;49.594;8.734;2022-11-15T20:12:25;12.60;99.90
34574;DHT22;20809;49.594;8.734;2022-11-15T20:15:25;12.60;99.90
34574;DHT22;20809;49.594;8.734;2022-11-15T20:18:27;12.60;99.90
34574;DHT22;20809;49.594;8.734;2022-11-15T20:21:28;12.60;99.90
34574;DHT22;20809;49.594;8.734;2022-11-15T20:24:28;12.60;99.90
34574;DHT22;20809;49.594;8.734;2022-11-15T20:27:30;12.70;99.90
34574;DHT22;20809;49.594;8.734;2022-11-15T20:30:34;12.70;99.90
34574;DHT22;20809;49.594;8.734;2022-11-15T20:33:34;12.60;99.90
34574;DHT22;20809;49.594;8.734;2022-11-15T20:36:35;12.70;99.90
34574;DHT22;20809;49.594;8.734;2022-11-15T20:39:36;12.60;99.90
34574;DHT22;20809;49.594;8.734;2022-11-15T20:42:37;12.60;99.90
34574;DHT22;20809;49.594;8.734;2022-11-15T20:45:38;12.60;99.90
34574;DHT22;20809;49.594;8.734;2022-11-15T20:48:39;12.50;99.90
34574;DHT22;20809;49.594;8.734;2022-11-15T20:51:40;12.50;99.90
34574;DHT22;20809;49.594;8.734;2022-11-15T20:54:40;12.50;99.90
34574;DHT22;20809;49.594;8.734;2022-11-15T20:57:41;12.40;99.90
34574;DHT22;20809;49.594;8.734;2022-11-15T21:00:43;12.50;99.90
34574;DHT22;20809;49.594;8.734;2022-11-15T21:03:44;12.40;99.90
34574;DHT22;20809;49.594;8.734;2022-11-15T21:06:44;12.50;99.90
34574;DHT22;20809;49.594;8.734;2022-11-15T21:09:45;12.60;99.90
34574;DHT22;20809;49.594;8.734;2022-11-15T21:13:04;12.60;99.90
34574;DHT22;20809;49.594;8.734;2022-11-15T21:16:06;12.60;99.90
34574;DHT22;20809;49.594;8.734;2022-11-15T21:19:06;12.50;99.90